sensor_id;sensor_type;location;lat;lon;timestamp;P1;durP1;ratioP1;P2;durP2;ratioP2
20383;SDS011;46458;50.966;7.002;2024-03-06T00:00:46;36.77;;;24.20;;
20383;SDS011;46458;50.966;7.002;2024-03-06T00:03:19;35.17;;;23.47;;
20383;SDS011;46458;50.966;7.002;2024-03-06T00:05:48;36.67;;;23.90;;
20383;SDS011;46458;50.966;7.002;2024-03-06T00:08:19;36.37;;;23.50;;
20383;SDS011;46458;50.966;7.002;2024-03-06T00:10:48;38.07;;;25.30;;
20383;SDS011;46458;50.966;7.002;2024-03-06T00:13:17;40.30;;;25.03;;
20383;SDS011;46458;50.966;7.002;2024-03-06T00:15:48;37.57;;;23.33;;
20383;SDS011;46458;50.966;7.002;2024-03-06T00:18:19;36.27;;;23.47;;
20383;SDS011;46458;50.966;7.002;2024-03-06T00:20:53;37.60;;;23.90;;
20383;SDS011;46458;50.966;7.002;2024-03-06T00:23:22;34.23;;;22.53;;
20383;SDS011;46458;50.966;7.002;2024-03-06T00:25:51;37.27;;;24.53;;
20383;SDS011;46458;50.966;7.002;2024-03-06T00:28:23;37.83;;;24.00;;
20383;SDS011;46458;50.966;7.002;2024-03-06T00:30:52;36.83;;;23.13;;
20383;SDS011;46458;50.966;7.002;2024-03-06T00:33:23;36.43;;;23.13;;
20383;SDS011;46458;50.966;7.002;2024-03-06T00:35:52;37.90;;;23.80;;
20383;SDS011;46458;50.966;7.002;2024-03-06T00:38:24;36.60;;;21.90;;
20383;SDS011;46458;50.966;7.002;2024-03-06T00:40:52;38.60;;;24.60;;
20383;SDS011;46458;50.966;7.002;2024-03-06T00:43:22;34.20;;;21.97;;
20383;SDS011;46458;50.966;7.002;2024-03-06T00:45:51;37.87;;;22.87;;
20383;SDS011;46458;50.966;7.002;2024-03-06T00:48:23;34.57;;;22.93;;
20383;SDS011;46458;50.966;7.002;2024-03-06T00:50:51;37.00;;;23.87;;
20383;SDS011;46458;50.966;7.002;2024-03-06T00:53:20;38.60;;;24.07;;
20383;SDS011;46458;50.966;7.002;2024-03-06T00:55:52;34.00;;;22.93;;
20383;SDS011;46458;50.966;7.002;2024-03-06T00:58:21;36.70;;;24.43;;
20383;SDS011;46458;50.966;7.002;2024-03-06T01:00:50;37.40;;;23.37;;
20383;SDS011;46458;50.966;7.002;2024-03-06T01:03:19;38.73;;;26.23;;
20383;SDS011;46458;50.966;7.002;2024-03-06T01:05:50;41.47;;;25.60;;
20383;SDS011;46458;50.966;7.002;2024-03-06T01:08:21;38.23;;;24.33;;
20383;SDS011;46458;50.966;7.002;2024-03-06T01:10:50;38.53;;;24.60;;
20383;SDS011;46458;50.966;7.002;2024-03-06T01:13:19;42.07;;;25.97;;
20383;SDS011;46458;50.966;7.002;2024-03-06T01:15:50;38.83;;;25.37;;
20383;SDS011;46458;50.966;7.002;2024-03-06T01:18:18;38.30;;;25.43;;
20383;SDS011;46458;50.966;7.002;2024-03-06T01:20:50;40.80;;;25.17;;
20383;SDS011;46458;50.966;7.002;2024-03-06T01:23:19;41.00;;;24.53;;
20383;SDS011;46458;50.966;7.002;2024-03-06T01:25:47;40.10;;;25.97;;
20383;SDS011;46458;50.966;7.002;2024-03-06T01:28:16;38.07;;;25.27;;
20383;SDS011;46458;50.966;7.002;2024-03-06T01:30:45;36.87;;;25.03;;
20383;SDS011;46458;50.966;7.002;2024-03-06T01:33:14;36.33;;;23.97;;
20383;SDS011;46458;50.966;7.002;2024-03-06T01:35:43;33.77;;;23.20;;
20383;SDS011;46458;50.966;7.002;2024-03-06T01:38:14;40.50;;;24.70;;
20383;SDS011;46458;50.966;7.002;2024-03-06T01:40:43;37.13;;;24.50;;
20383;SDS011;46458;50.966;7.002;2024-03-06T01:43:19;38.30;;;24.40;;
20383;SDS011;46458;50.966;7.002;2024-03-06T01:45:49;36.67;;;23.17;;
20383;SDS011;46458;50.966;7.002;2024-03-06T01:48:20;39.93;;;25.30;;
20383;SDS011;46458;50.966;7.002;2024-03-06T01:50:51;40.97;;;25.27;;
20383;SDS011;46458;50.966;7.002;2024-03-06T01:53:27;40.33;;;25.33;;
20383;SDS011;46458;50.966;7.002;2024-03-06T01:55:59;38.90;;;24.37;;
20383;SDS011;46458;50.966;7.002;2024-03-06T01:58:29;40.10;;;25.23;;
20383;SDS011;46458;50.966;7.002;2024-03-06T02:00:59;39.43;;;24.47;;
20383;SDS011;46458;50.966;7.002;2024-03-06T02:03:28;44.23;;;26.20;;
20383;SDS011;46458;50.966;7.002;2024-03-06T02:05:59;43.67;;;26.53;;
20383;SDS011;46458;50.966;7.002;2024-03-06T02:08:33;40.60;;;25.90;;
20383;SDS011;46458;50.966;7.002;2024-03-06T02:11:02;42.07;;;25.40;;
20383;SDS011;46458;50.966;7.002;2024-03-06T02:13:32;45.37;;;27.47;;
20383;SDS011;46458;50.966;7.002;2024-03-06T02:16:01;42.27;;;26.57;;
20383;SDS011;46458;50.966;7.002;2024-03-06T02:18:33;44.90;;;27.27;;
20383;SDS011;46458;50.966;7.002;2024-03-06T02:21:05;42.77;;;27.07;;
20383;SDS011;46458;50.966;7.002;2024-03-06T02:23:37;41.37;;;26.67;;
20383;SDS011;46458;50.966;7.002;2024-03-06T02:26:06;43.47;;;26.77;;
20383;SDS011;46458;50.966;7.002;2024-03-06T02:28:35;41.80;;;26.30;;
20383;SDS011;46458;50.966;7.002;2024-03-06T02:31:04;44.03;;;27.73;;
20383;SDS011;46458;50.966;7.002;2024-03-06T02:33:33;44.60;;;26.20;;
20383;SDS011;46458;50.966;7.002;2024-03-06T02:36:05;41.23;;;26.27;;
20383;SDS011;46458;50.966;7.002;2024-03-06T02:38:36;43.00;;;24.90;;
20383;SDS011;46458;50.966;7.002;2024-03-06T02:41:05;42.83;;;25.93;;
20383;SDS011;46458;50.966;7.002;2024-03-06T02:43:34;43.10;;;26.30;;
20383;SDS011;46458;50.966;7.002;2024-03-06T02:46:03;38.40;;;25.90;;
20383;SDS011;46458;50.966;7.002;2024-03-06T02:48:32;37.03;;;24.50;;
20383;SDS011;46458;50.966;7.002;2024-03-06T02:51:01;40.37;;;25.30;;
20383;SDS011;46458;50.966;7.002;2024-03-06T02:53:35;39.73;;;24.10;;
20383;SDS011;46458;50.966;7.002;2024-03-06T02:56:04;39.57;;;26.13;;
20383;SDS011;46458;50.966;7.002;2024-03-06T02:58:43;39.07;;;26.00;;
20383;SDS011;46458;50.966;7.002;2024-03-06T03:01:13;37.53;;;24.10;;
20383;SDS011;46458;50.966;7.002;2024-03-06T03:03:42;34.30;;;23.03;;
20383;SDS011;46458;50.966;7.002;2024-03-06T03:06:14;35.13;;;23.03;;
20383;SDS011;46458;50.966;7.002;2024-03-06T03:08:45;39.33;;;23.83;;
20383;SDS011;46458;50.966;7.002;2024-03-06T03:11:14;39.83;;;23.33;;
20383;SDS011;46458;50.966;7.002;2024-03-06T03:13:43;40.33;;;22.73;;
20383;SDS011;46458;50.966;7.002;2024-03-06T03:16:15;35.17;;;23.37;;
20383;SDS011;46458;50.966;7.002;2024-03-06T03:18:45;39.33;;;23.57;;
20383;SDS011;46458;50.966;7.002;2024-03-06T03:21:14;35.97;;;23.00;;
20383;SDS011;46458;50.966;7.002;2024-03-06T03:23:46;32.30;;;21.90;;
20383;SDS011;46458;50.966;7.002;2024-03-06T03:26:15;31.53;;;21.80;;
20383;SDS011;46458;50.966;7.002;2024-03-06T03:28:46;34.27;;;22.40;;
20383;SDS011;46458;50.966;7.002;2024-03-06T03:31:15;36.53;;;22.17;;
20383;SDS011;46458;50.966;7.002;2024-03-06T03:33:47;34.83;;;22.17;;
20383;SDS011;46458;50.966;7.002;2024-03-06T03:36:16;30.77;;;21.40;;
20383;SDS011;46458;50.966;7.002;2024-03-06T03:38:47;34.57;;;22.43;;
20383;SDS011;46458;50.966;7.002;2024-03-06T03:41:16;34.33;;;22.70;;
20383;SDS011;46458;50.966;7.002;2024-03-06T03:43:45;32.70;;;21.23;;
20383;SDS011;46458;50.966;7.002;2024-03-06T03:46:14;35.37;;;22.10;;
20383;SDS011;46458;50.966;7.002;2024-03-06T03:48:48;36.33;;;22.10;;
20383;SDS011;46458;50.966;7.002;2024-03-06T03:51:17;33.90;;;23.07;;
20383;SDS011;46458;50.966;7.002;2024-03-06T03:53:49;33.77;;;21.83;;
20383;SDS011;46458;50.966;7.002;2024-03-06T03:56:19;33.60;;;21.70;;
20383;SDS011;46458;50.966;7.002;2024-03-06T03:58:47;32.53;;;21.87;;
20383;SDS011;46458;50.966;7.002;2024-03-06T04:01:16;35.07;;;21.27;;
20383;SDS011;46458;50.966;7.002;2024-03-06T04:03:51;31.93;;;20.17;;
20383;SDS011;46458;50.966;7.002;2024-03-06T04:06:22;34.43;;;21.30;;
20383;SDS011;46458;50.966;7.002;2024-03-06T04:08:53;34.03;;;20.37;;
20383;SDS011;46458;50.966;7.002;2024-03-06T04:11:22;32.73;;;21.40;;
20383;SDS011;46458;50.966;7.002;2024-03-06T04:13:51;32.20;;;19.77;;
20383;SDS011;46458;50.966;7.002;2024-03-06T04:16:20;30.73;;;20.80;;
20383;SDS011;46458;50.966;7.002;2024-03-06T04:18:51;31.17;;;19.90;;
20383;SDS011;46458;50.966;7.002;2024-03-06T04:21:20;31.17;;;19.10;;
20383;SDS011;46458;50.966;7.002;2024-03-06T04:23:49;28.47;;;18.53;;
20383;SDS011;46458;50.966;7.002;2024-03-06T04:26:20;28.87;;;18.97;;
20383;SDS011;46458;50.966;7.002;2024-03-06T04:28:50;27.60;;;17.87;;
20383;SDS011;46458;50.966;7.002;2024-03-06T04:31:19;24.90;;;17.33;;
20383;SDS011;46458;50.966;7.002;2024-03-06T04:33:48;26.73;;;17.53;;
20383;SDS011;46458;50.966;7.002;2024-03-06T04:36:16;25.93;;;17.03;;
20383;SDS011;46458;50.966;7.002;2024-03-06T04:38:45;25.13;;;16.83;;
20383;SDS011;46458;50.966;7.002;2024-03-06T04:41:15;24.47;;;16.37;;
20383;SDS011;46458;50.966;7.002;2024-03-06T04:43:51;21.77;;;14.50;;
20383;SDS011;46458;50.966;7.002;2024-03-06T04:46:25;24.63;;;14.50;;
20383;SDS011;46458;50.966;7.002;2024-03-06T04:48:54;19.87;;;12.93;;
20383;SDS011;46458;50.966;7.002;2024-03-06T04:51:25;15.83;;;10.80;;
20383;SDS011;46458;50.966;7.002;2024-03-06T04:53:56;15.27;;;10.87;;
20383;SDS011;46458;50.966;7.002;2024-03-06T04:56:27;13.53;;;9.37;;
20383;SDS011;46458;50.966;7.002;2024-03-06T04:58:56;13.77;;;8.80;;
20383;SDS011;46458;50.966;7.002;2024-03-06T05:01:28;12.47;;;8.77;;
20383;SDS011;46458;50.966;7.002;2024-03-06T05:03:57;12.93;;;8.70;;
20383;SDS011;46458;50.966;7.002;2024-03-06T05:06:27;11.20;;;8.07;;
20383;SDS011;46458;50.966;7.002;2024-03-06T05:08:58;13.63;;;8.13;;
20383;SDS011;46458;50.966;7.002;2024-03-06T05:11:30;12.70;;;8.30;;
20383;SDS011;46458;50.966;7.002;2024-03-06T05:13:59;10.07;;;7.73;;
20383;SDS011;46458;50.966;7.002;2024-03-06T05:16:28;11.77;;;7.77;;
20383;SDS011;46458;50.966;7.002;2024-03-06T05:18:57;10.67;;;7.83;;
20383;SDS011;46458;50.966;7.002;2024-03-06T05:21:27;12.07;;;8.27;;
20383;SDS011;46458;50.966;7.002;2024-03-06T05:23:56;11.67;;;8.10;;
20383;SDS011;46458;50.966;7.002;2024-03-06T05:26:30;8.67;;;7.30;;
20383;SDS011;46458;50.966;7.002;2024-03-06T05:29:00;10.23;;;7.77;;
20383;SDS011;46458;50.966;7.002;2024-03-06T05:31:31;10.03;;;7.10;;
20383;SDS011;46458;50.966;7.002;2024-03-06T05:34:00;9.17;;;6.93;;
20383;SDS011;46458;50.966;7.002;2024-03-06T05:36:30;9.10;;;6.83;;
20383;SDS011;46458;50.966;7.002;2024-03-06T05:38:59;11.77;;;6.80;;
20383;SDS011;46458;50.966;7.002;2024-03-06T05:41:33;7.83;;;6.37;;
20383;SDS011;46458;50.966;7.002;2024-03-06T05:44:02;8.77;;;6.13;;
20383;SDS011;46458;50.966;7.002;2024-03-06T05:46:31;7.40;;;5.87;;
20383;SDS011;46458;50.966;7.002;2024-03-06T05:48:59;9.03;;;6.47;;
20383;SDS011;46458;50.966;7.002;2024-03-06T05:51:30;10.27;;;7.07;;
20383;SDS011;46458;50.966;7.002;2024-03-06T05:53:58;10.23;;;7.37;;
20383;SDS011;46458;50.966;7.002;2024-03-06T05:56:28;11.93;;;7.60;;
20383;SDS011;46458;50.966;7.002;2024-03-06T05:59:02;11.53;;;7.50;;
20383;SDS011;46458;50.966;7.002;2024-03-06T06:01:33;11.07;;;7.47;;
20383;SDS011;46458;50.966;7.002;2024-03-06T06:04:03;9.77;;;6.40;;
20383;SDS011;46458;50.966;7.002;2024-03-06T06:06:32;7.77;;;6.17;;
20383;SDS011;46458;50.966;7.002;2024-03-06T06:09:01;9.07;;;5.97;;
20383;SDS011;46458;50.966;7.002;2024-03-06T06:11:32;9.17;;;5.27;;
20383;SDS011;46458;50.966;7.002;2024-03-06T06:14:05;8.67;;;5.70;;
20383;SDS011;46458;50.966;7.002;2024-03-06T06:16:35;9.10;;;5.97;;
20383;SDS011;46458;50.966;7.002;2024-03-06T06:19:06;8.70;;;5.57;;
20383;SDS011;46458;50.966;7.002;2024-03-06T06:21:38;7.67;;;6.10;;
20383;SDS011;46458;50.966;7.002;2024-03-06T06:24:09;8.17;;;6.17;;
20383;SDS011;46458;50.966;7.002;2024-03-06T06:26:41;8.63;;;5.50;;
20383;SDS011;46458;50.966;7.002;2024-03-06T06:29:12;6.53;;;5.30;;
20383;SDS011;46458;50.966;7.002;2024-03-06T06:31:41;7.53;;;5.27;;
20383;SDS011;46458;50.966;7.002;2024-03-06T06:34:10;7.70;;;4.80;;
20383;SDS011;46458;50.966;7.002;2024-03-06T06:36:39;7.43;;;5.07;;
20383;SDS011;46458;50.966;7.002;2024-03-06T06:39:13;7.67;;;4.73;;
20383;SDS011;46458;50.966;7.002;2024-03-06T06:41:42;6.63;;;4.43;;
20383;SDS011;46458;50.966;7.002;2024-03-06T06:44:16;6.13;;;4.80;;
20383;SDS011;46458;50.966;7.002;2024-03-06T06:46:45;6.80;;;5.13;;
20383;SDS011;46458;50.966;7.002;2024-03-06T06:49:14;6.13;;;4.27;;
20383;SDS011;46458;50.966;7.002;2024-03-06T06:51:42;7.40;;;4.70;;
20383;SDS011;46458;50.966;7.002;2024-03-06T06:54:11;5.70;;;4.60;;
20383;SDS011;46458;50.966;7.002;2024-03-06T06:56:40;6.83;;;4.87;;
20383;SDS011;46458;50.966;7.002;2024-03-06T06:59:10;5.03;;;4.53;;
20383;SDS011;46458;50.966;7.002;2024-03-06T07:01:41;6.63;;;4.63;;
20383;SDS011;46458;50.966;7.002;2024-03-06T07:04:11;5.27;;;4.50;;
20383;SDS011;46458;50.966;7.002;2024-03-06T07:06:41;5.37;;;4.77;;
20383;SDS011;46458;50.966;7.002;2024-03-06T07:09:10;5.97;;;4.83;;
20383;SDS011;46458;50.966;7.002;2024-03-06T07:11:43;7.23;;;4.60;;
20383;SDS011;46458;50.966;7.002;2024-03-06T07:14:16;7.27;;;4.80;;
20383;SDS011;46458;50.966;7.002;2024-03-06T07:16:47;8.00;;;4.80;;
20383;SDS011;46458;50.966;7.002;2024-03-06T07:19:16;8.20;;;4.97;;
20383;SDS011;46458;50.966;7.002;2024-03-06T07:21:48;5.97;;;4.37;;
20383;SDS011;46458;50.966;7.002;2024-03-06T07:24:22;7.30;;;4.73;;
20383;SDS011;46458;50.966;7.002;2024-03-06T07:26:51;8.10;;;5.50;;
20383;SDS011;46458;50.966;7.002;2024-03-06T07:29:20;8.83;;;6.07;;
20383;SDS011;46458;50.966;7.002;2024-03-06T07:31:51;9.43;;;6.73;;
20383;SDS011;46458;50.966;7.002;2024-03-06T07:34:20;10.77;;;7.70;;
20383;SDS011;46458;50.966;7.002;2024-03-06T07:36:49;12.03;;;9.03;;
20383;SDS011;46458;50.966;7.002;2024-03-06T07:39:18;14.60;;;9.77;;
20383;SDS011;46458;50.966;7.002;2024-03-06T07:41:48;15.60;;;11.10;;
20383;SDS011;46458;50.966;7.002;2024-03-06T07:44:17;15.40;;;11.60;;
20383;SDS011;46458;50.966;7.002;2024-03-06T07:46:46;16.70;;;11.70;;
20383;SDS011;46458;50.966;7.002;2024-03-06T07:49:20;15.63;;;10.70;;
20383;SDS011;46458;50.966;7.002;2024-03-06T07:51:49;16.10;;;12.17;;
20383;SDS011;46458;50.966;7.002;2024-03-06T07:54:18;19.07;;;11.77;;
20383;SDS011;46458;50.966;7.002;2024-03-06T07:56:47;15.77;;;11.93;;
20383;SDS011;46458;50.966;7.002;2024-03-06T07:59:16;17.13;;;12.23;;
20383;SDS011;46458;50.966;7.002;2024-03-06T08:01:45;15.27;;;11.50;;
20383;SDS011;46458;50.966;7.002;2024-03-06T08:04:16;15.20;;;11.80;;
20383;SDS011;46458;50.966;7.002;2024-03-06T08:06:45;19.40;;;12.00;;
20383;SDS011;46458;50.966;7.002;2024-03-06T08:09:14;16.37;;;11.33;;
20383;SDS011;46458;50.966;7.002;2024-03-06T08:11:44;17.57;;;10.93;;
20383;SDS011;46458;50.966;7.002;2024-03-06T08:14:14;15.77;;;10.60;;
20383;SDS011;46458;50.966;7.002;2024-03-06T08:16:43;15.67;;;11.70;;
20383;SDS011;46458;50.966;7.002;2024-03-06T08:19:12;16.13;;;11.47;;
20383;SDS011;46458;50.966;7.002;2024-03-06T08:21:44;15.33;;;10.13;;
20383;SDS011;46458;50.966;7.002;2024-03-06T08:24:12;16.70;;;9.47;;
20383;SDS011;46458;50.966;7.002;2024-03-06T08:26:42;11.50;;;8.87;;
20383;SDS011;46458;50.966;7.002;2024-03-06T08:29:11;13.80;;;9.37;;
20383;SDS011;46458;50.966;7.002;2024-03-06T08:31:40;13.73;;;9.70;;
20383;SDS011;46458;50.966;7.002;2024-03-06T08:34:09;14.40;;;9.60;;
20383;SDS011;46458;50.966;7.002;2024-03-06T08:36:40;11.47;;;8.37;;
20383;SDS011;46458;50.966;7.002;2024-03-06T08:39:09;8.30;;;7.30;;
20383;SDS011;46458;50.966;7.002;2024-03-06T08:41:40;10.13;;;6.97;;
20383;SDS011;46458;50.966;7.002;2024-03-06T08:44:12;9.57;;;5.87;;
20383;SDS011;46458;50.966;7.002;2024-03-06T08:46:41;8.83;;;6.60;;
20383;SDS011;46458;50.966;7.002;2024-03-06T08:49:09;10.50;;;6.63;;
20383;SDS011;46458;50.966;7.002;2024-03-06T08:51:42;7.27;;;6.07;;
20383;SDS011;46458;50.966;7.002;2024-03-06T08:54:11;7.00;;;6.10;;
20383;SDS011;46458;50.966;7.002;2024-03-06T08:56:43;6.73;;;5.50;;
20383;SDS011;46458;50.966;7.002;2024-03-06T08:59:11;7.20;;;5.90;;
20383;SDS011;46458;50.966;7.002;2024-03-06T09:01:40;7.00;;;5.93;;
20383;SDS011;46458;50.966;7.002;2024-03-06T09:04:09;7.07;;;5.83;;
20383;SDS011;46458;50.966;7.002;2024-03-06T09:06:43;6.70;;;5.33;;
20383;SDS011;46458;50.966;7.002;2024-03-06T09:09:12;8.00;;;5.03;;
20383;SDS011;46458;50.966;7.002;2024-03-06T09:11:41;6.23;;;4.30;;
20383;SDS011;46458;50.966;7.002;2024-03-06T09:14:10;5.33;;;4.20;;
20383;SDS011;46458;50.966;7.002;2024-03-06T09:16:39;6.07;;;4.60;;
20383;SDS011;46458;50.966;7.002;2024-03-06T09:19:08;5.27;;;4.50;;
20383;SDS011;46458;50.966;7.002;2024-03-06T09:21:37;6.93;;;5.17;;
20383;SDS011;46458;50.966;7.002;2024-03-06T09:24:09;6.23;;;5.03;;
20383;SDS011;46458;50.966;7.002;2024-03-06T09:26:37;8.57;;;5.17;;
20383;SDS011;46458;50.966;7.002;2024-03-06T09:29:16;7.73;;;5.10;;
20383;SDS011;46458;50.966;7.002;2024-03-06T09:31:44;8.83;;;6.60;;
20383;SDS011;46458;50.966;7.002;2024-03-06T09:34:14;6.97;;;5.73;;
20383;SDS011;46458;50.966;7.002;2024-03-06T09:36:45;7.73;;;5.60;;
20383;SDS011;46458;50.966;7.002;2024-03-06T09:39:20;7.93;;;5.70;;
20383;SDS011;46458;50.966;7.002;2024-03-06T09:41:49;10.10;;;5.77;;
20383;SDS011;46458;50.966;7.002;2024-03-06T09:44:18;11.33;;;7.30;;
20383;SDS011;46458;50.966;7.002;2024-03-06T09:46:49;10.63;;;6.97;;
20383;SDS011;46458;50.966;7.002;2024-03-06T09:49:18;9.60;;;6.40;;
20383;SDS011;46458;50.966;7.002;2024-03-06T09:51:48;9.53;;;6.93;;
20383;SDS011;46458;50.966;7.002;2024-03-06T09:54:20;10.20;;;6.77;;
20383;SDS011;46458;50.966;7.002;2024-03-06T09:56:51;10.37;;;7.00;;
20383;SDS011;46458;50.966;7.002;2024-03-06T09:59:24;7.23;;;6.23;;
20383;SDS011;46458;50.966;7.002;2024-03-06T10:01:53;10.00;;;7.33;;
20383;SDS011;46458;50.966;7.002;2024-03-06T10:04:27;10.23;;;8.20;;
20383;SDS011;46458;50.966;7.002;2024-03-06T10:07:00;11.37;;;8.33;;
20383;SDS011;46458;50.966;7.002;2024-03-06T10:09:32;15.57;;;8.47;;
20383;SDS011;46458;50.966;7.002;2024-03-06T10:12:00;10.43;;;8.13;;
20383;SDS011;46458;50.966;7.002;2024-03-06T10:14:30;12.90;;;8.83;;
20383;SDS011;46458;50.966;7.002;2024-03-06T10:17:06;13.50;;;10.23;;
20383;SDS011;46458;50.966;7.002;2024-03-06T10:19:35;16.93;;;12.27;;
20383;SDS011;46458;50.966;7.002;2024-03-06T10:22:06;18.43;;;13.40;;
20383;SDS011;46458;50.966;7.002;2024-03-06T10:24:40;18.47;;;14.07;;
20383;SDS011;46458;50.966;7.002;2024-03-06T10:27:13;17.63;;;13.57;;
20383;SDS011;46458;50.966;7.002;2024-03-06T10:29:43;22.57;;;15.37;;
20383;SDS011;46458;50.966;7.002;2024-03-06T10:32:16;21.40;;;15.37;;
20383;SDS011;46458;50.966;7.002;2024-03-06T10:34:46;23.03;;;15.30;;
20383;SDS011;46458;50.966;7.002;2024-03-06T10:37:15;19.90;;;15.57;;
20383;SDS011;46458;50.966;7.002;2024-03-06T10:39:50;18.52;;;14.70;;
20383;SDS011;46458;50.966;7.002;2024-03-06T10:42:23;19.85;;;14.45;;
20383;SDS011;46458;50.966;7.002;2024-03-06T10:44:59;20.80;;;14.98;;
20383;SDS011;46458;50.966;7.002;2024-03-06T10:47:32;17.97;;;14.53;;
20383;SDS011;46458;50.966;7.002;2024-03-06T10:50:02;18.60;;;13.35;;
20383;SDS011;46458;50.966;7.002;2024-03-06T10:52:35;17.65;;;14.52;;
20383;SDS011;46458;50.966;7.002;2024-03-06T10:55:08;19.00;;;14.93;;
20383;SDS011;46458;50.966;7.002;2024-03-06T10:57:40;18.27;;;14.77;;
20383;SDS011;46458;50.966;7.002;2024-03-06T11:00:12;21.05;;;15.02;;
20383;SDS011;46458;50.966;7.002;2024-03-06T11:02:47;20.10;;;15.60;;
20383;SDS011;46458;50.966;7.002;2024-03-06T11:05:16;18.35;;;13.85;;
20383;SDS011;46458;50.966;7.002;2024-03-06T11:07:45;18.63;;;14.93;;
20383;SDS011;46458;50.966;7.002;2024-03-06T11:13:03;21.17;;;15.77;;
20383;SDS011;46458;50.966;7.002;2024-03-06T11:15:37;22.67;;;16.88;;
20383;SDS011;46458;50.966;7.002;2024-03-06T11:24:14;23.13;;;17.02;;
20383;SDS011;46458;50.966;7.002;2024-03-06T11:26:45;20.13;;;16.33;;
20383;SDS011;46458;50.966;7.002;2024-03-06T11:29:18;19.77;;;16.10;;
20383;SDS011;46458;50.966;7.002;2024-03-06T11:34:35;23.08;;;17.35;;
20383;SDS011;46458;50.966;7.002;2024-03-06T11:37:05;21.48;;;16.95;;
20383;SDS011;46458;50.966;7.002;2024-03-06T11:39:37;22.00;;;17.17;;
20383;SDS011;46458;50.966;7.002;2024-03-06T11:42:12;20.35;;;16.15;;
20383;SDS011;46458;50.966;7.002;2024-03-06T11:44:52;21.92;;;16.50;;
20383;SDS011;46458;50.966;7.002;2024-03-06T11:47:25;19.25;;;15.75;;
20383;SDS011;46458;50.966;7.002;2024-03-06T11:49:53;21.70;;;16.90;;
20383;SDS011;46458;50.966;7.002;2024-03-06T11:52:23;20.92;;;16.73;;
20383;SDS011;46458;50.966;7.002;2024-03-06T11:54:52;18.98;;;16.38;;
20383;SDS011;46458;50.966;7.002;2024-03-06T11:57:24;21.98;;;15.82;;
20383;SDS011;46458;50.966;7.002;2024-03-06T11:59:53;18.13;;;15.15;;
20383;SDS011;46458;50.966;7.002;2024-03-06T12:02:22;20.58;;;15.48;;
20383;SDS011;46458;50.966;7.002;2024-03-06T12:04:51;19.65;;;16.50;;
20383;SDS011;46458;50.966;7.002;2024-03-06T12:07:19;19.13;;;15.95;;
20383;SDS011;46458;50.966;7.002;2024-03-06T12:09:48;22.10;;;16.63;;
20383;SDS011;46458;50.966;7.002;2024-03-06T12:12:17;20.98;;;16.42;;
20383;SDS011;46458;50.966;7.002;2024-03-06T12:14:58;21.90;;;16.30;;
20383;SDS011;46458;50.966;7.002;2024-03-06T12:17:29;20.80;;;16.40;;
20383;SDS011;46458;50.966;7.002;2024-03-06T12:19:58;20.38;;;14.98;;
20383;SDS011;46458;50.966;7.002;2024-03-06T12:22:30;18.58;;;14.95;;
20383;SDS011;46458;50.966;7.002;2024-03-06T12:25:03;18.83;;;13.73;;
20383;SDS011;46458;50.966;7.002;2024-03-06T12:27:33;14.93;;;12.75;;
20383;SDS011;46458;50.966;7.002;2024-03-06T12:30:10;15.07;;;12.60;;
20383;SDS011;46458;50.966;7.002;2024-03-06T12:32:44;17.35;;;13.73;;
20383;SDS011;46458;50.966;7.002;2024-03-06T12:35:13;18.33;;;13.68;;
20383;SDS011;46458;50.966;7.002;2024-03-06T12:37:52;18.15;;;13.20;;
20383;SDS011;46458;50.966;7.002;2024-03-06T12:40:21;16.08;;;12.25;;
20383;SDS011;46458;50.966;7.002;2024-03-06T12:42:53;13.15;;;10.45;;
20383;SDS011;46458;50.966;7.002;2024-03-06T12:45:25;12.68;;;10.60;;
20383;SDS011;46458;50.966;7.002;2024-03-06T12:47:54;12.70;;;9.27;;
20383;SDS011;46458;50.966;7.002;2024-03-06T12:50:23;18.15;;;14.43;;
20383;SDS011;46458;50.966;7.002;2024-03-06T12:52:52;16.95;;;13.48;;
20383;SDS011;46458;50.966;7.002;2024-03-06T12:55:21;16.83;;;12.98;;
20383;SDS011;46458;50.966;7.002;2024-03-06T12:57:50;15.00;;;12.60;;
20383;SDS011;46458;50.966;7.002;2024-03-06T13:00:19;16.88;;;13.30;;
20383;SDS011;46458;50.966;7.002;2024-03-06T13:02:50;16.60;;;14.13;;
20383;SDS011;46458;50.966;7.002;2024-03-06T13:05:19;15.70;;;13.20;;
20383;SDS011;46458;50.966;7.002;2024-03-06T13:07:48;18.35;;;13.60;;
20383;SDS011;46458;50.966;7.002;2024-03-06T13:10:17;16.85;;;13.18;;
20383;SDS011;46458;50.966;7.002;2024-03-06T13:12:47;15.90;;;11.55;;
20383;SDS011;46458;50.966;7.002;2024-03-06T13:15:16;12.57;;;10.70;;
20383;SDS011;46458;50.966;7.002;2024-03-06T13:17:45;12.50;;;10.25;;
20383;SDS011;46458;50.966;7.002;2024-03-06T13:20:19;11.57;;;8.70;;
20383;SDS011;46458;50.966;7.002;2024-03-06T13:22:51;11.43;;;9.05;;
20383;SDS011;46458;50.966;7.002;2024-03-06T13:25:20;10.13;;;7.35;;
20383;SDS011;46458;50.966;7.002;2024-03-06T13:27:49;10.27;;;8.40;;
20383;SDS011;46458;50.966;7.002;2024-03-06T13:30:19;10.77;;;8.55;;
20383;SDS011;46458;50.966;7.002;2024-03-06T13:32:50;10.68;;;8.57;;
20383;SDS011;46458;50.966;7.002;2024-03-06T13:35:22;10.68;;;8.70;;
20383;SDS011;46458;50.966;7.002;2024-03-06T13:37:54;8.70;;;7.32;;
20383;SDS011;46458;50.966;7.002;2024-03-06T13:40:25;10.05;;;7.70;;
20383;SDS011;46458;50.966;7.002;2024-03-06T13:42:54;8.88;;;7.32;;
20383;SDS011;46458;50.966;7.002;2024-03-06T13:45:23;10.30;;;7.35;;
20383;SDS011;46458;50.966;7.002;2024-03-06T13:47:52;9.10;;;7.45;;
20383;SDS011;46458;50.966;7.002;2024-03-06T13:50:26;8.10;;;6.95;;
20383;SDS011;46458;50.966;7.002;2024-03-06T13:52:56;9.55;;;7.47;;
20383;SDS011;46458;50.966;7.002;2024-03-06T13:55:24;8.20;;;7.03;;
20383;SDS011;46458;50.966;7.002;2024-03-06T13:57:56;10.30;;;8.23;;
20383;SDS011;46458;50.966;7.002;2024-03-06T14:00:25;9.48;;;6.90;;
20383;SDS011;46458;50.966;7.002;2024-03-06T14:02:54;7.22;;;6.53;;
20383;SDS011;46458;50.966;7.002;2024-03-06T14:05:25;7.65;;;6.35;;
20383;SDS011;46458;50.966;7.002;2024-03-06T14:07:58;8.50;;;6.07;;
20383;SDS011;46458;50.966;7.002;2024-03-06T14:10:27;7.22;;;5.88;;
20383;SDS011;46458;50.966;7.002;2024-03-06T14:12:58;8.10;;;5.90;;
20383;SDS011;46458;50.966;7.002;2024-03-06T14:15:27;7.80;;;6.07;;
20383;SDS011;46458;50.966;7.002;2024-03-06T14:17:56;8.32;;;6.30;;
20383;SDS011;46458;50.966;7.002;2024-03-06T14:20:29;6.53;;;5.40;;
20383;SDS011;46458;50.966;7.002;2024-03-06T14:22:59;6.30;;;5.55;;
20383;SDS011;46458;50.966;7.002;2024-03-06T14:25:28;6.15;;;5.40;;
20383;SDS011;46458;50.966;7.002;2024-03-06T14:28:00;7.15;;;5.60;;
20383;SDS011;46458;50.966;7.002;2024-03-06T14:30:29;7.68;;;6.28;;
20383;SDS011;46458;50.966;7.002;2024-03-06T14:32:58;6.10;;;5.43;;
20383;SDS011;46458;50.966;7.002;2024-03-06T14:35:29;6.70;;;5.70;;
20383;SDS011;46458;50.966;7.002;2024-03-06T14:38:01;6.53;;;5.60;;
20383;SDS011;46458;50.966;7.002;2024-03-06T14:40:32;8.65;;;5.43;;
20383;SDS011;46458;50.966;7.002;2024-03-06T14:43:01;5.78;;;4.97;;
20383;SDS011;46458;50.966;7.002;2024-03-06T14:45:34;5.82;;;5.20;;
20383;SDS011;46458;50.966;7.002;2024-03-06T14:48:07;7.15;;;5.68;;
20383;SDS011;46458;50.966;7.002;2024-03-06T14:50:39;5.30;;;4.80;;
20383;SDS011;46458;50.966;7.002;2024-03-06T14:53:07;5.15;;;4.55;;
20383;SDS011;46458;50.966;7.002;2024-03-06T14:55:37;5.93;;;4.78;;
20383;SDS011;46458;50.966;7.002;2024-03-06T14:58:06;6.50;;;4.95;;
20383;SDS011;46458;50.966;7.002;2024-03-06T15:00:38;6.32;;;4.55;;